createdAt,value
2019-03-12T00:00:31.792Z,96.19
2019-03-12T00:01:31.797Z,96.19
2019-03-12T00:02:31.762Z,96.61
2019-03-12T00:03:31.759Z,96.29
2019-03-12T00:04:31.748Z,96.50
2019-03-12T00:05:31.733Z,96.61
2019-03-12T00:06:31.755Z,96.61
2019-03-12T00:07:31.718Z,96.04
2019-03-12T00:08:31.741Z,96.45
2019-03-12T00:09:31.695Z,96.29
2019-03-12T00:10:31.694Z,96.25
2019-03-12T00:11:31.674Z,96.39
2019-03-12T00:12:31.664Z,96.35
2019-03-12T00:13:31.688Z,96.35
2019-03-12T00:14:31.640Z,96.50
2019-03-12T00:15:31.640Z,96.50
2019-03-12T00:16:31.623Z,96.29
2019-03-12T00:17:31.616Z,96.39
2019-03-12T00:18:31.643Z,96.35
2019-03-12T00:19:31.595Z,96.14
2019-03-12T00:20:31.585Z,96.77
2019-03-12T00:21:31.569Z,96.66
2019-03-12T00:22:31.563Z,95.31
2019-03-12T00:23:31.588Z,95.15
2019-03-12T00:24:31.573Z,95.15
2019-03-12T00:25:31.558Z,95.05
2019-03-12T00:26:31.537Z,95.47
2019-03-12T00:27:31.509Z,95.05
2019-03-12T00:28:31.514Z,95.41
2019-03-12T00:29:31.519Z,95.41
2019-03-12T00:30:31.492Z,95.05
2019-03-12T00:31:31.479Z,95.26
2019-03-12T00:32:31.466Z,95.05
2019-03-12T00:33:31.498Z,94.57
2019-03-12T00:34:31.447Z,95.05
2019-03-12T00:35:31.433Z,95.09
2019-03-12T00:36:31.422Z,94.89
2019-03-12T00:37:31.413Z,95.51
2019-03-12T00:38:31.427Z,95.51
2019-03-12T00:39:31.393Z,95.15
2019-03-12T00:40:31.383Z,95.05
2019-03-12T00:41:31.375Z,95.15
2019-03-12T00:42:31.370Z,94.11
2019-03-12T00:43:31.421Z,94.21
2019-03-12T00:44:31.348Z,94.11
2019-03-12T00:45:31.337Z,94.01
2019-03-12T00:46:31.334Z,93.38
2019-03-12T00:47:31.315Z,93.70
2019-03-12T00:48:31.327Z,93.48
2019-03-12T00:49:31.321Z,93.80
2019-03-12T00:50:31.279Z,93.95
2019-03-12T00:51:31.279Z,94.11
2019-03-12T00:52:31.260Z,94.05
2019-03-12T00:53:31.261Z,94.11
2019-03-12T00:54:31.313Z,93.70
2019-03-12T00:55:31.273Z,94.11
2019-03-12T00:56:31.272Z,94.11
2019-03-12T00:57:31.213Z,93.80
2019-03-12T00:58:31.204Z,93.90
2019-03-12T00:59:31.209Z,93.70
2019-03-12T01:00:31.203Z,93.07
2019-03-12T01:01:31.170Z,93.38
2019-03-12T01:02:31.168Z,93.27
2019-03-12T01:03:31.182Z,93.48
2019-03-12T01:04:31.138Z,93.27
2019-03-12T01:05:31.127Z,92.96
2019-03-12T01:06:31.133Z,93.42
2019-03-12T01:07:31.123Z,94.21
2019-03-12T01:08:31.126Z,93.17
2019-03-12T01:09:31.093Z,93.27
2019-03-12T01:10:31.082Z,93.17
2019-03-12T01:11:31.107Z,92.96
2019-03-12T01:12:31.062Z,93.32
2019-03-12T01:13:31.092Z,94.15
2019-03-12T01:14:31.809Z,93.74
2019-03-12T01:15:31.084Z,93.84
2019-03-12T01:16:31.037Z,93.95
2019-03-12T01:17:31.016Z,94.05
2019-03-12T01:18:31.034Z,94.15
2019-03-12T01:19:30.997Z,93.95
2019-03-12T01:20:30.978Z,93.84
2019-03-12T01:21:30.970Z,93.74
2019-03-12T01:22:30.959Z,93.84
2019-03-12T01:23:30.977Z,93.84
2019-03-12T01:24:30.940Z,94.26
2019-03-12T01:25:30.931Z,93.21
2019-03-12T01:26:30.924Z,93.11
2019-03-12T01:27:30.909Z,93.90
2019-03-12T01:28:30.901Z,93.95
2019-03-12T01:29:30.923Z,92.96
2019-03-12T01:30:30.876Z,93.32
2019-03-12T01:31:30.881Z,93.42
2019-03-12T01:32:30.866Z,93.32
2019-03-12T01:33:30.850Z,94.05
2019-03-12T01:34:30.868Z,93.74
2019-03-12T01:35:30.840Z,93.74
2019-03-12T01:36:30.821Z,93.95
2019-03-12T01:37:30.839Z,94.36
2019-03-12T01:38:30.807Z,93.88
2019-03-12T01:39:30.824Z,93.78
2019-03-12T01:40:30.785Z,93.74
2019-03-12T01:41:30.777Z,93.95
2019-03-12T01:42:31.314Z,93.63
2019-03-12T01:43:30.755Z,94.09
2019-03-12T01:44:30.771Z,94.09
2019-03-12T01:45:30.729Z,94.20
2019-03-12T01:46:30.722Z,94.51
2019-03-12T01:47:30.714Z,94.40
2019-03-12T01:48:30.719Z,94.30
2019-03-12T01:49:30.693Z,94.09
2019-03-12T01:50:30.706Z,94.20
2019-03-12T01:51:31.295Z,94.09
2019-03-12T01:52:30.696Z,94.40
2019-03-12T01:53:30.678Z,93.88
2019-03-12T01:54:30.676Z,94.82
2019-03-12T01:55:30.662Z,94.20
2019-03-12T01:56:30.618Z,94.66
2019-03-12T01:57:30.611Z,95.29
2019-03-12T01:58:30.600Z,95.29
2019-03-12T01:59:30.626Z,95.18
2019-03-12T02:00:30.578Z,95.07
2019-03-12T02:01:30.577Z,95.29
2019-03-12T02:02:30.558Z,95.07
2019-03-12T02:03:30.551Z,95.18
2019-03-12T02:04:30.543Z,95.60
2019-03-12T02:05:30.550Z,95.39
2019-03-12T02:06:30.521Z,96.65
2019-03-12T02:07:30.544Z,95.54
2019-03-12T02:08:30.495Z,96.17
2019-03-12T02:09:30.495Z,95.70
2019-03-12T02:10:30.474Z,95.39
2019-03-12T02:11:30.465Z,95.60
2019-03-12T02:12:30.501Z,95.29
2019-03-12T02:13:30.498Z,96.55
2019-03-12T02:14:30.443Z,95.29
2019-03-12T02:15:30.425Z,94.87
2019-03-12T02:16:30.422Z,95.29
2019-03-12T02:17:30.409Z,95.81
2019-03-12T02:18:30.425Z,95.07
2019-03-12T02:19:30.410Z,95.60
2019-03-12T02:20:30.435Z,95.50
2019-03-12T02:21:30.366Z,95.39
2019-03-12T02:22:30.357Z,95.18
2019-03-12T02:23:30.374Z,95.07
2019-03-12T02:24:30.344Z,95.07
2019-03-12T02:25:30.328Z,95.18
2019-03-12T02:26:30.348Z,95.18
2019-03-12T02:27:30.311Z,94.97
2019-03-12T02:28:30.298Z,94.97
2019-03-12T02:29:30.294Z,94.56
2019-03-12T02:30:30.279Z,94.60
2019-03-12T02:31:30.267Z,94.97
2019-03-12T02:32:30.298Z,94.60
2019-03-12T02:33:30.264Z,94.60
2019-03-12T02:34:30.234Z,95.23
2019-03-12T02:35:30.226Z,95.23
2019-03-12T02:36:30.238Z,95.12
2019-03-12T02:37:30.233Z,95.33
2019-03-12T02:38:30.203Z,95.01
2019-03-12T02:39:30.213Z,94.54
2019-03-12T02:40:30.183Z,95.27
2019-03-12T02:41:30.165Z,95.37
2019-03-12T02:42:30.161Z,95.10
2019-03-12T02:43:30.166Z,95.84
2019-03-12T02:44:30.172Z,95.62
2019-03-12T02:45:30.124Z,95.42
2019-03-12T02:46:30.116Z,95.21
2019-03-12T02:47:30.107Z,94.62
2019-03-12T02:48:30.093Z,94.93
2019-03-12T02:49:30.111Z,95.46
2019-03-12T02:50:30.098Z,94.77
2019-03-12T02:51:30.099Z,95.40
2019-03-12T02:52:30.080Z,96.55
2019-03-12T02:53:30.049Z,96.55
2019-03-12T02:54:30.149Z,96.77
2019-03-12T02:55:30.052Z,96.59
2019-03-12T02:56:30.027Z,96.70
2019-03-12T02:57:30.027Z,96.87
2019-03-12T02:58:30.042Z,97.18
2019-03-12T02:59:29.982Z,97.39
2019-03-12T03:00:29.976Z,96.81
2019-03-12T03:01:29.981Z,97.12
2019-03-12T03:02:29.954Z,97.12
2019-03-12T03:03:29.993Z,96.70
2019-03-12T03:04:29.975Z,96.81
2019-03-12T03:05:29.946Z,96.95
2019-03-12T03:06:29.915Z,96.64
2019-03-12T03:07:29.907Z,95.70
2019-03-12T03:08:29.902Z,95.90
2019-03-12T03:09:29.906Z,95.80
2019-03-12T03:10:30.120Z,96.85
2019-03-12T03:11:29.922Z,97.27
2019-03-12T03:12:29.904Z,97.17
2019-03-12T03:13:29.900Z,98.64
2019-03-12T03:14:29.970Z,98.38
2019-03-12T03:15:29.874Z,98.38
2019-03-12T03:16:29.858Z,98.64
2019-03-12T03:17:29.871Z,98.49
2019-03-12T03:18:29.847Z,98.59
2019-03-12T03:19:29.890Z,98.43
2019-03-12T03:20:29.822Z,97.69
2019-03-12T03:21:29.816Z,97.38
2019-03-12T03:22:29.809Z,97.80
2019-03-12T03:23:29.829Z,97.48
2019-03-12T03:24:29.880Z,97.48
2019-03-12T03:25:29.828Z,97.63
2019-03-12T03:26:29.789Z,97.69
2019-03-12T03:27:29.925Z,97.11
2019-03-12T03:28:29.749Z,97.21
2019-03-12T03:29:29.834Z,97.25
2019-03-12T03:30:29.733Z,95.04
2019-03-12T03:31:29.718Z,96.56
2019-03-12T03:32:29.708Z,96.67
2019-03-12T03:33:29.722Z,98.88
2019-03-12T03:34:29.701Z,99.67
2019-03-12T03:35:29.744Z,99.99
2019-03-12T03:36:29.674Z,99.99
2019-03-12T03:37:29.663Z,99.99
2019-03-12T03:38:29.713Z,99.40
2019-03-12T03:39:29.649Z,98.98
2019-03-12T03:40:29.702Z,99.40
2019-03-12T03:41:29.612Z,98.77
2019-03-12T03:42:29.612Z,98.66
2019-03-12T03:43:29.601Z,98.56
2019-03-12T03:44:29.592Z,99.40
2019-03-12T03:45:29.650Z,99.30
2019-03-12T03:46:29.573Z,99.61
2019-03-12T03:47:29.563Z,99.72
2019-03-12T03:48:29.542Z,99.99
2019-03-12T03:49:29.519Z,99.99
2019-03-12T03:50:29.584Z,99.99
2019-03-12T03:51:29.516Z,99.99
2019-03-12T03:52:29.514Z,99.73
2019-03-12T03:53:29.478Z,99.52
2019-03-12T03:54:29.490Z,99.00
2019-03-12T03:55:29.445Z,98.36
2019-03-12T03:56:29.442Z,98.89
2019-03-12T03:57:29.434Z,98.52
2019-03-12T03:58:29.454Z,98.72
2019-03-12T03:59:29.408Z,97.47
2019-03-12T04:00:29.400Z,96.73
2019-03-12T04:01:29.393Z,97.15
2019-03-12T04:02:29.364Z,97.88
2019-03-12T04:03:29.406Z,98.62
2019-03-12T04:04:29.357Z,98.52
2019-03-12T04:05:29.347Z,97.99
2019-03-12T04:06:33.613Z,97.57
2019-03-12T04:07:29.323Z,96.62
2019-03-12T04:08:29.322Z,97.36
2019-03-12T04:09:29.342Z,96.56
2019-03-12T04:10:29.299Z,97.19
2019-03-12T04:11:29.287Z,97.61
2019-03-12T04:12:29.288Z,98.46
2019-03-12T04:13:29.262Z,98.52
2019-03-12T04:14:29.259Z,98.94
2019-03-12T04:15:29.313Z,99.04
2019-03-12T04:16:29.258Z,98.62
2019-03-12T04:17:29.223Z,98.72
2019-03-12T04:18:29.221Z,98.72
2019-03-12T04:19:29.240Z,98.72
2019-03-12T04:20:29.201Z,98.30
2019-03-12T04:21:29.220Z,98.58
2019-03-12T04:22:29.176Z,98.89
2019-03-12T04:23:29.167Z,99.27
2019-03-12T04:24:29.167Z,98.53
2019-03-12T04:25:29.168Z,98.00
2019-03-12T04:26:29.172Z,98.64
2019-03-12T04:27:29.132Z,97.90
2019-03-12T04:28:29.126Z,97.96
2019-03-12T04:29:29.135Z,98.17
2019-03-12T04:30:29.097Z,97.44
2019-03-12T04:31:29.111Z,96.81
2019-03-12T04:32:29.078Z,96.91
2019-03-12T04:33:29.067Z,97.50
2019-03-12T04:34:29.058Z,97.29
2019-03-12T04:35:29.051Z,96.97
2019-03-12T04:36:29.084Z,96.87
2019-03-12T04:37:29.050Z,97.08
2019-03-12T04:38:29.019Z,96.77
2019-03-12T04:39:29.009Z,96.55
2019-03-12T04:40:28.993Z,96.66
2019-03-12T04:41:28.982Z,96.97
2019-03-12T04:42:28.982Z,97.08
2019-03-12T04:43:28.987Z,96.55
2019-03-12T04:44:28.955Z,96.77
2019-03-12T04:45:28.967Z,96.97
2019-03-12T04:46:28.936Z,96.87
2019-03-12T04:47:28.922Z,96.97
2019-03-12T04:48:28.916Z,96.77
2019-03-12T04:49:28.903Z,96.77
2019-03-12T04:50:28.928Z,96.87
2019-03-12T04:51:28.885Z,96.51
2019-03-12T04:52:28.873Z,96.72
2019-03-12T04:53:28.856Z,96.72
2019-03-12T04:54:28.864Z,96.83
2019-03-12T04:55:28.851Z,95.78
2019-03-12T04:56:28.861Z,96.77
2019-03-12T04:57:28.819Z,95.67
2019-03-12T04:58:28.816Z,95.72
2019-03-12T04:59:28.802Z,96.66
2019-03-12T05:00:28.790Z,95.19
2019-03-12T05:01:28.818Z,95.76
2019-03-12T05:02:28.761Z,95.13
2019-03-12T05:03:28.756Z,95.44
2019-03-12T05:04:28.761Z,95.65
2019-03-12T05:05:28.731Z,95.59
2019-03-12T05:06:28.753Z,94.33
2019-03-12T05:07:28.713Z,95.00
2019-03-12T05:08:28.699Z,96.79
2019-03-12T05:09:28.754Z,95.64
2019-03-12T05:10:28.682Z,97.00
2019-03-12T05:11:28.698Z,95.95
2019-03-12T05:12:30.617Z,95.99
2019-03-12T05:13:28.660Z,95.89
2019-03-12T05:14:28.643Z,96.41
2019-03-12T05:15:28.667Z,95.26
2019-03-12T05:16:28.620Z,95.62
2019-03-12T05:17:28.609Z,95.62
2019-03-12T05:18:28.626Z,95.51
2019-03-12T05:19:28.613Z,94.67
2019-03-12T05:20:28.579Z,95.40
2019-03-12T05:21:28.606Z,94.18
2019-03-12T05:22:28.566Z,94.18
2019-03-12T05:23:28.563Z,94.71
2019-03-12T05:24:28.548Z,95.45
2019-03-12T05:25:28.548Z,95.24
2019-03-12T05:26:28.631Z,96.50
2019-03-12T05:27:28.516Z,96.81
2019-03-12T05:28:28.505Z,97.76
2019-03-12T05:29:28.489Z,97.66
2019-03-12T05:30:28.490Z,97.03
2019-03-12T05:31:28.498Z,97.24
2019-03-12T05:32:28.467Z,97.87
2019-03-12T05:33:29.331Z,98.82
2019-03-12T05:34:28.464Z,98.60
2019-03-12T05:35:28.439Z,98.92
2019-03-12T05:36:28.474Z,98.71
2019-03-12T05:37:28.467Z,97.87
2019-03-12T05:38:28.440Z,97.81
2019-03-12T05:39:28.421Z,98.50
2019-03-12T05:40:28.385Z,98.82
2019-03-12T05:41:28.408Z,99.02
2019-03-12T05:42:28.367Z,99.44
2019-03-12T05:43:28.356Z,99.55
2019-03-12T05:44:28.656Z,99.99
2019-03-12T05:45:28.343Z,99.99
2019-03-12T05:46:28.396Z,99.99
2019-03-12T05:47:28.321Z,99.55
2019-03-12T05:48:28.314Z,99.02
2019-03-12T05:49:28.294Z,97.66
2019-03-12T05:50:28.290Z,97.24
2019-03-12T05:51:28.308Z,97.66
2019-03-12T05:52:28.281Z,98.39
2019-03-12T05:53:28.266Z,98.60
2019-03-12T05:54:28.296Z,98.82
2019-03-12T05:55:28.242Z,97.13
2019-03-12T05:56:28.263Z,95.97
2019-03-12T05:57:28.851Z,96.61
2019-03-12T05:58:28.221Z,97.13
2019-03-12T05:59:28.231Z,96.81
2019-03-12T06:00:28.197Z,97.60
2019-03-12T06:01:28.270Z,97.76
2019-03-12T06:02:28.180Z,97.45
2019-03-12T06:03:28.172Z,97.66
2019-03-12T06:04:28.166Z,98.71
2019-03-12T06:05:28.171Z,98.71
2019-03-12T06:06:28.172Z,98.92
2019-03-12T06:07:28.118Z,98.71
2019-03-12T06:08:28.153Z,99.40
2019-03-12T06:09:30.482Z,98.88
2019-03-12T06:10:28.130Z,99.19
2019-03-12T06:11:28.092Z,98.56
2019-03-12T06:12:28.087Z,98.66
2019-03-12T06:13:28.093Z,97.61
2019-03-12T06:14:28.050Z,96.98
2019-03-12T06:15:28.045Z,97.19
2019-03-12T06:16:28.083Z,97.51
2019-03-12T06:17:28.052Z,97.51
2019-03-12T06:18:28.010Z,97.41
2019-03-12T06:19:28.002Z,97.61
2019-03-12T06:20:28.083Z,98.62
2019-03-12T06:21:28.048Z,98.52
2019-03-12T06:22:27.973Z,98.47
2019-03-12T06:23:27.962Z,96.91
2019-03-12T06:24:27.987Z,96.66
2019-03-12T06:25:27.938Z,96.93
2019-03-12T06:26:27.982Z,95.78
2019-03-12T06:27:27.950Z,94.79
2019-03-12T06:28:31.052Z,94.89
2019-03-12T06:29:27.955Z,94.26
2019-03-12T06:30:27.906Z,93.95
2019-03-12T06:31:27.887Z,94.68
2019-03-12T06:32:27.906Z,94.16
2019-03-12T06:33:27.922Z,93.32
2019-03-12T06:34:27.862Z,93.21
2019-03-12T06:35:27.875Z,93.32
2019-03-12T06:36:27.843Z,92.69
2019-03-12T06:37:27.847Z,92.38
2019-03-12T06:38:27.820Z,92.90
2019-03-12T06:39:27.822Z,92.48
2019-03-12T06:40:27.826Z,92.16
2019-03-12T06:41:27.784Z,90.70
2019-03-12T06:42:27.779Z,90.59
2019-03-12T06:43:27.835Z,89.40
2019-03-12T06:44:27.755Z,88.84
2019-03-12T06:45:27.741Z,88.79
2019-03-12T06:46:27.757Z,88.86
2019-03-12T06:47:27.748Z,88.50
2019-03-12T06:48:27.730Z,88.88
2019-03-12T06:49:27.697Z,89.89
2019-03-12T06:50:27.715Z,89.78
2019-03-12T06:51:27.717Z,89.22
2019-03-12T06:52:27.678Z,88.72
2019-03-12T06:53:27.666Z,88.51
2019-03-12T06:54:27.679Z,88.16
2019-03-12T06:55:27.650Z,87.53
2019-03-12T06:56:27.667Z,87.28
2019-03-12T06:57:27.654Z,87.14
2019-03-12T06:58:27.611Z,86.30
2019-03-12T06:59:27.611Z,85.74
2019-03-12T07:00:27.717Z,84.28
2019-03-12T07:01:34.346Z,82.89
2019-03-12T07:02:27.628Z,82.44
2019-03-12T07:03:27.567Z,82.37
2019-03-12T07:04:27.554Z,83.37
2019-03-12T07:05:27.582Z,83.06
2019-03-12T07:06:27.538Z,83.44
2019-03-12T07:07:27.525Z,83.03
2019-03-12T07:08:27.507Z,81.46
2019-03-12T07:09:27.522Z,82.89
2019-03-12T07:10:27.524Z,81.29
2019-03-12T07:11:27.481Z,79.62
2019-03-12T07:12:27.518Z,80.15
2019-03-12T07:13:27.469Z,81.35
2019-03-12T07:14:27.449Z,80.42
2019-03-12T07:15:27.480Z,79.34
2019-03-12T07:16:28.357Z,79.24
2019-03-12T07:17:27.416Z,79.83
2019-03-12T07:18:27.432Z,78.03
2019-03-12T07:19:27.399Z,77.72
2019-03-12T07:20:27.452Z,78.44
2019-03-12T07:21:27.379Z,77.06
2019-03-12T07:22:28.331Z,76.85
2019-03-12T07:23:27.372Z,75.88
2019-03-12T07:24:27.348Z,76.09
2019-03-12T07:25:27.337Z,75.53
2019-03-12T07:26:27.414Z,73.88
2019-03-12T07:27:28.838Z,74.15
2019-03-12T07:28:27.355Z,73.39
2019-03-12T07:29:27.339Z,73.22
2019-03-12T07:30:27.393Z,72.60
2019-03-12T07:31:28.011Z,72.88
2019-03-12T07:32:27.268Z,73.50
2019-03-12T07:33:27.311Z,73.57
2019-03-12T07:34:36.197Z,71.47
2019-03-12T07:35:28.262Z,71.15
2019-03-12T07:36:27.256Z,72.16
2019-03-12T07:37:27.234Z,71.95
2019-03-12T07:38:27.257Z,72.05
2019-03-12T07:39:27.202Z,70.19
2019-03-12T07:40:27.226Z,69.26
2019-03-12T07:41:32.390Z,70.92
2019-03-12T07:42:28.180Z,72.02
2019-03-12T07:43:27.216Z,69.95
2019-03-12T07:44:28.836Z,72.53
2019-03-12T07:45:27.178Z,71.47
2019-03-12T07:46:27.186Z,69.78
2019-03-12T07:47:35.595Z,69.96
2019-03-12T07:48:28.106Z,67.07
2019-03-12T07:49:27.085Z,68.30
2019-03-12T07:50:27.077Z,67.07
2019-03-12T07:51:27.112Z,67.38
2019-03-12T07:52:27.059Z,66.76
2019-03-12T07:53:27.047Z,68.48
2019-03-12T07:54:27.036Z,68.04
2019-03-12T07:55:29.714Z,66.91
2019-03-12T07:56:27.045Z,68.11
2019-03-12T07:57:27.013Z,65.84
2019-03-12T07:58:35.564Z,64.71
2019-03-12T07:59:27.988Z,65.61
2019-03-12T08:00:26.986Z,64.58
2019-03-12T08:01:26.994Z,65.26
2019-03-12T08:02:26.967Z,64.96
2019-03-12T08:03:26.949Z,64.62
2019-03-12T08:04:26.934Z,63.79
2019-03-12T08:05:28.310Z,64.21
2019-03-12T08:06:26.941Z,63.28
2019-03-12T08:07:26.920Z,63.35
2019-03-12T08:08:26.889Z,63.67
2019-03-12T08:09:26.888Z,62.92
2019-03-12T08:10:26.876Z,62.40
2019-03-12T08:11:26.897Z,62.30
2019-03-12T08:12:26.849Z,63.32
2019-03-12T08:13:26.855Z,62.68
2019-03-12T08:14:27.144Z,62.37
2019-03-12T08:15:26.828Z,60.93
2019-03-12T08:16:26.841Z,62.37
2019-03-12T08:17:26.796Z,60.93
2019-03-12T08:18:26.792Z,59.57
2019-03-12T08:19:26.783Z,58.54
2019-03-12T08:20:26.768Z,59.16
2019-03-12T08:21:26.784Z,60.67
2019-03-12T08:22:26.751Z,59.36
2019-03-12T08:23:26.733Z,61.96
2019-03-12T08:24:26.740Z,62.41
2019-03-12T08:25:26.715Z,59.95
2019-03-12T08:26:26.843Z,59.52
2019-03-12T08:27:26.708Z,59.48
2019-03-12T08:28:26.683Z,60.28
2019-03-12T08:29:26.671Z,58.20
2019-03-12T08:30:26.663Z,59.84
2019-03-12T08:31:26.677Z,57.07
2019-03-12T08:32:26.643Z,57.92
2019-03-12T08:33:26.633Z,56.90
2019-03-12T08:34:26.636Z,57.38
2019-03-12T08:35:26.664Z,59.09
2019-03-12T08:36:26.646Z,57.15
2019-03-12T08:37:26.591Z,57.97
2019-03-12T08:38:26.584Z,55.69
2019-03-12T08:39:26.576Z,55.38
2019-03-12T08:40:26.568Z,57.51
2019-03-12T08:41:26.572Z,58.29
2019-03-12T08:42:26.542Z,55.74
2019-03-12T08:43:26.526Z,57.25
2019-03-12T08:44:26.630Z,54.08
2019-03-12T08:45:26.508Z,53.49
2019-03-12T08:46:26.531Z,52.90
2019-03-12T08:47:26.483Z,55.15
2019-03-12T08:48:26.475Z,56.66
2019-03-12T08:49:26.470Z,55.64
2019-03-12T08:50:26.451Z,55.71
2019-03-12T08:51:26.481Z,54.59
2019-03-12T08:52:26.438Z,53.88
2019-03-12T08:53:26.421Z,53.47
2019-03-12T08:54:26.412Z,55.56
2019-03-12T08:55:26.408Z,55.79
2019-03-12T08:56:26.418Z,56.02
2019-03-12T08:57:26.375Z,57.35
2019-03-12T08:58:26.401Z,59.27
2019-03-12T08:59:26.358Z,55.36
2019-03-12T09:00:26.354Z,55.64
2019-03-12T09:01:26.362Z,54.28
2019-03-12T09:02:26.330Z,55.30
2019-03-12T09:03:26.313Z,58.02
2019-03-12T09:04:26.309Z,55.10
2019-03-12T09:05:26.292Z,55.89
2019-03-12T09:06:26.319Z,55.51
2019-03-12T09:07:26.276Z,53.92
2019-03-12T09:08:26.263Z,56.51
2019-03-12T09:09:26.254Z,58.97
2019-03-12T09:10:26.242Z,56.74
2019-03-12T09:11:26.259Z,56.87
2019-03-12T09:12:26.231Z,55.49
2019-03-12T09:13:26.221Z,53.72
2019-03-12T09:14:26.205Z,52.09
2019-03-12T09:15:26.188Z,51.98
2019-03-12T09:16:26.175Z,55.51
2019-03-12T09:17:26.209Z,55.66
2019-03-12T09:18:26.197Z,55.79
2019-03-12T09:19:26.153Z,57.87
2019-03-12T09:20:26.146Z,57.23
2019-03-12T09:21:26.189Z,55.90
2019-03-12T09:22:26.117Z,55.90
2019-03-12T09:23:26.136Z,56.07
2019-03-12T09:24:26.096Z,56.76
2019-03-12T09:25:26.115Z,55.84
2019-03-12T09:26:26.155Z,55.64
2019-03-12T09:27:26.093Z,56.68
2019-03-12T09:28:26.053Z,55.13
2019-03-12T09:29:26.042Z,53.55
2019-03-12T09:30:26.030Z,51.56
2019-03-12T09:31:26.055Z,48.79
2019-03-12T09:32:26.024Z,46.55
2019-03-12T09:33:26.007Z,48.15
2019-03-12T09:34:25.989Z,47.34
2019-03-12T09:35:26.028Z,45.20
2019-03-12T09:36:25.973Z,48.66
2019-03-12T09:37:25.951Z,50.15
2019-03-12T09:38:25.956Z,50.92
2019-03-12T09:39:25.940Z,50.86
2019-03-12T09:40:25.928Z,48.26
2019-03-12T09:41:25.943Z,47.02
2019-03-12T09:42:25.908Z,51.15
2019-03-12T09:43:25.919Z,50.59
2019-03-12T09:44:25.907Z,51.12
2019-03-12T09:45:25.953Z,50.31
2019-03-12T09:46:25.868Z,53.16
2019-03-12T09:47:26.842Z,52.22
2019-03-12T09:48:25.850Z,51.97
2019-03-12T09:49:27.584Z,49.15
2019-03-12T09:50:25.837Z,47.88
2019-03-12T09:51:25.808Z,49.00
2019-03-12T09:52:25.807Z,45.01
2019-03-12T09:53:25.833Z,44.28
2019-03-12T09:54:25.787Z,44.36
2019-03-12T09:55:27.422Z,46.35
2019-03-12T09:56:25.821Z,42.90
2019-03-12T09:57:25.797Z,42.00
2019-03-12T09:58:25.746Z,45.01
2019-03-12T09:59:25.740Z,40.56
2019-03-12T10:00:25.726Z,42.82
2019-03-12T10:01:25.778Z,42.74
2019-03-12T10:02:25.725Z,39.26
2019-03-12T10:03:26.344Z,43.77
2019-03-12T10:04:25.918Z,41.50
2019-03-12T10:05:25.671Z,42.09
2019-03-12T10:06:25.699Z,42.19
2019-03-12T10:07:25.651Z,41.91
2019-03-12T10:08:25.636Z,39.70
2019-03-12T10:09:25.633Z,40.63
2019-03-12T10:10:25.734Z,43.49
2019-03-12T10:11:25.627Z,41.30
2019-03-12T10:12:28.354Z,42.39
2019-03-12T10:13:25.580Z,42.96
2019-03-12T10:14:25.581Z,44.16
2019-03-12T10:15:25.559Z,45.73
2019-03-12T10:16:25.559Z,44.06
2019-03-12T10:17:25.592Z,44.16
2019-03-12T10:18:25.532Z,43.84
2019-03-12T10:19:25.521Z,43.71
2019-03-12T10:20:25.507Z,43.12
2019-03-12T10:21:25.506Z,42.12
2019-03-12T10:22:25.543Z,42.94
2019-03-12T10:23:25.476Z,46.55
2019-03-12T10:24:28.597Z,41.74
2019-03-12T10:25:25.450Z,46.09
2019-03-12T10:26:25.526Z,42.43
2019-03-12T10:27:25.489Z,40.27
2019-03-12T10:28:26.364Z,42.88
2019-03-12T10:29:25.430Z,42.02
2019-03-12T10:30:25.401Z,40.22
2019-03-12T10:31:25.396Z,38.93
2019-03-12T10:32:25.426Z,40.30
2019-03-12T10:33:25.390Z,40.92
2019-03-12T10:34:29.978Z,41.57
2019-03-12T10:35:25.351Z,42.77
2019-03-12T10:36:25.347Z,44.36
2019-03-12T10:37:25.376Z,44.85
2019-03-12T10:38:25.321Z,41.66
2019-03-12T10:39:25.339Z,40.14
2019-03-12T10:40:25.288Z,40.12
2019-03-12T10:41:25.377Z,41.91
2019-03-12T10:42:25.283Z,42.69
2019-03-12T10:43:25.861Z,39.96
2019-03-12T10:44:25.265Z,38.70
2019-03-12T10:45:25.283Z,36.94
2019-03-12T10:46:25.229Z,39.83
2019-03-12T10:47:25.225Z,36.00
2019-03-12T10:48:25.212Z,38.37
2019-03-12T10:49:37.044Z,39.53
2019-03-12T10:50:26.299Z,40.99
2019-03-12T10:51:25.188Z,43.81
2019-03-12T10:52:25.194Z,43.96
2019-03-12T10:53:25.173Z,42.69
2019-03-12T10:54:25.150Z,45.12
2019-03-12T10:55:25.138Z,47.05
2019-03-12T10:56:25.173Z,49.50
2019-03-12T10:57:25.143Z,47.01
2019-03-12T10:58:25.115Z,45.56
2019-03-12T10:59:25.090Z,44.30
2019-03-12T11:00:25.111Z,39.84
2019-03-12T11:01:25.094Z,38.16
2019-03-12T11:02:25.129Z,37.52
2019-03-12T11:03:25.100Z,34.92
2019-03-12T11:04:25.067Z,36.04
2019-03-12T11:05:25.826Z,37.92
2019-03-12T11:06:25.037Z,37.06
2019-03-12T11:07:25.014Z,30.71
2019-03-12T11:08:25.272Z,32.45
2019-03-12T11:09:25.006Z,31.05
2019-03-12T11:10:25.189Z,33.18
2019-03-12T11:11:24.975Z,32.75
2019-03-12T11:12:24.964Z,32.85
2019-03-12T11:14:44.942Z,34.59
2019-03-12T11:15:44.767Z,35.36
2019-03-12T11:16:44.746Z,31.36
2019-03-12T11:17:50.050Z,34.81
2019-03-12T11:18:45.715Z,34.91
2019-03-12T11:19:44.755Z,32.67
2019-03-12T11:20:44.690Z,30.86
2019-03-12T11:21:44.683Z,33.04
2019-03-12T11:22:44.676Z,29.91
2019-03-12T11:23:44.698Z,32.73
2019-03-12T11:24:44.695Z,28.38
2019-03-12T11:25:44.647Z,32.88
2019-03-12T11:26:44.624Z,31.19
2019-03-12T11:27:44.613Z,29.59
2019-03-12T11:28:44.606Z,33.70
2019-03-12T11:29:44.605Z,27.75
2019-03-12T11:30:44.620Z,29.65
2019-03-12T11:31:44.590Z,31.04
2019-03-12T11:32:44.608Z,28.17
2019-03-12T11:33:44.576Z,32.20
2019-03-12T11:34:44.562Z,30.88
2019-03-12T11:35:44.530Z,25.85
2019-03-12T11:36:44.524Z,27.95
2019-03-12T11:37:44.582Z,29.24
2019-03-12T11:38:44.589Z,29.22
2019-03-12T11:39:44.608Z,28.62
2019-03-12T11:40:44.473Z,28.13
2019-03-12T11:41:44.467Z,28.91
2019-03-12T11:42:44.457Z,26.02
2019-03-12T11:43:45.438Z,27.37
2019-03-12T11:44:44.445Z,29.19
2019-03-12T11:45:44.428Z,29.05
2019-03-12T11:46:45.925Z,29.53
2019-03-12T11:47:44.401Z,26.35
2019-03-12T11:48:44.405Z,27.75
2019-03-12T11:49:44.425Z,28.70
2019-03-12T11:50:44.412Z,29.85
2019-03-12T11:51:44.380Z,28.83
2019-03-12T11:52:52.305Z,33.88
2019-03-12T11:53:45.375Z,30.15
2019-03-12T11:54:44.385Z,30.08
2019-03-12T11:55:44.325Z,30.21
2019-03-12T11:56:44.312Z,32.45
2019-03-12T11:57:44.298Z,31.76
2019-03-12T11:58:44.335Z,32.79
2019-03-12T11:59:44.322Z,32.51
2019-03-12T12:00:44.272Z,34.75
2019-03-12T12:01:44.273Z,33.11
2019-03-12T12:02:44.242Z,35.11
2019-03-12T12:03:44.965Z,33.04
2019-03-12T12:04:44.228Z,31.52
2019-03-12T12:05:44.234Z,31.05
2019-03-12T12:06:44.207Z,31.73
2019-03-12T12:07:44.188Z,31.03
2019-03-12T12:08:44.414Z,31.83
2019-03-12T12:09:44.176Z,31.40
2019-03-12T12:10:44.159Z,31.48
2019-03-12T12:11:44.164Z,29.34
2019-03-12T12:12:44.169Z,28.04
2019-03-12T12:13:44.155Z,30.15
2019-03-12T12:14:44.122Z,31.46
2019-03-12T12:15:44.110Z,29.35
2019-03-12T12:16:44.099Z,29.25
2019-03-12T12:17:44.083Z,29.03
2019-03-12T12:18:44.102Z,28.23
2019-03-12T12:19:44.074Z,30.73
2019-03-12T12:20:44.062Z,29.22
2019-03-12T12:21:44.047Z,30.21
2019-03-12T12:22:44.034Z,26.65
2019-03-12T12:23:44.043Z,23.81
2019-03-12T12:24:44.054Z,23.69
2019-03-12T12:25:44.017Z,25.31
2019-03-12T12:26:43.997Z,22.98
2019-03-12T12:27:43.981Z,26.60
2019-03-12T12:28:43.987Z,24.78
2019-03-12T12:29:43.985Z,25.07
2019-03-12T12:30:43.945Z,22.98
2019-03-12T12:31:43.937Z,29.19
2019-03-12T12:32:43.933Z,23.39
2019-03-12T12:33:43.928Z,25.63
2019-03-12T12:34:43.935Z,23.52
2019-03-12T12:35:43.902Z,26.25
2019-03-12T12:36:43.886Z,27.76
2019-03-12T12:37:43.873Z,24.46
2019-03-12T12:38:43.862Z,25.18
2019-03-12T12:39:43.883Z,26.52
2019-03-12T12:40:43.844Z,26.32
2019-03-12T12:41:43.835Z,26.13
2019-03-12T12:42:43.824Z,25.47
2019-03-12T12:43:43.819Z,27.94
2019-03-12T12:44:43.853Z,28.96
2019-03-12T12:45:43.785Z,30.18
2019-03-12T12:46:43.785Z,29.25
2019-03-12T12:47:43.770Z,25.20
2019-03-12T12:48:43.763Z,28.67
2019-03-12T12:49:43.805Z,26.81
2019-03-12T12:50:43.733Z,25.59
2019-03-12T12:51:43.775Z,26.07
2019-03-12T12:52:43.712Z,28.58
2019-03-12T12:53:43.702Z,29.98